sensor_id;sensor_type;location;lat;lon;timestamp;P1;durP1;ratioP1;P2;durP2;ratioP2
3941;SDS011;1985;48.592;8.850;2022-10-17T00:00:23;9.60;;;2.23;;
3941;SDS011;1985;48.592;8.850;2022-10-17T00:02:49;9.70;;;2.45;;
3941;SDS011;1985;48.592;8.850;2022-10-17T00:05:15;9.98;;;2.50;;
3941;SDS011;1985;48.592;8.850;2022-10-17T00:07:40;9.60;;;2.20;;
3941;SDS011;1985;48.592;8.850;2022-10-17T00:10:06;9.60;;;2.20;;
3941;SDS011;1985;48.592;8.850;2022-10-17T00:12:33;9.73;;;2.60;;
3941;SDS011;1985;48.592;8.850;2022-10-17T00:14:58;8.90;;;2.00;;
3941;SDS011;1985;48.592;8.850;2022-10-17T00:17:24;9.13;;;1.90;;
3941;SDS011;1985;48.592;8.850;2022-10-17T00:19:50;9.50;;;2.10;;
3941;SDS011;1985;48.592;8.850;2022-10-17T00:22:16;9.50;;;2.17;;
3941;SDS011;1985;48.592;8.850;2022-10-17T00:24:41;9.27;;;1.90;;
3941;SDS011;1985;48.592;8.850;2022-10-17T00:27:07;9.93;;;2.70;;
3941;SDS011;1985;48.592;8.850;2022-10-17T00:29:33;9.00;;;1.88;;
3941;SDS011;1985;48.592;8.850;2022-10-17T00:31:58;8.50;;;1.83;;
3941;SDS011;1985;48.592;8.850;2022-10-17T00:34:24;9.67;;;1.80;;
3941;SDS011;1985;48.592;8.850;2022-10-17T00:36:50;12.95;;;2.35;;
3941;SDS011;1985;48.592;8.850;2022-10-17T00:39:15;10.63;;;2.40;;
3941;SDS011;1985;48.592;8.850;2022-10-17T00:41:41;9.20;;;2.00;;
3941;SDS011;1985;48.592;8.850;2022-10-17T00:44:55;9.23;;;2.15;;
3941;SDS011;1985;48.592;8.850;2022-10-17T00:46:58;10.68;;;2.03;;
3941;SDS011;1985;48.592;8.850;2022-10-17T00:49:29;10.00;;;2.15;;
3941;SDS011;1985;48.592;8.850;2022-10-17T00:51:59;12.90;;;2.30;;
3941;SDS011;1985;48.592;8.850;2022-10-17T00:54:31;12.02;;;2.08;;
3941;SDS011;1985;48.592;8.850;2022-10-17T00:57:00;10.90;;;2.00;;
3941;SDS011;1985;48.592;8.850;2022-10-17T00:59:26;9.40;;;2.03;;
3941;SDS011;1985;48.592;8.850;2022-10-17T01:04:27;9.90;;;2.15;;
3941;SDS011;1985;48.592;8.850;2022-10-17T01:06:52;9.17;;;1.97;;
3941;SDS011;1985;48.592;8.850;2022-10-17T01:09:18;10.30;;;2.00;;
3941;SDS011;1985;48.592;8.850;2022-10-17T01:11:52;10.18;;;2.47;;
3941;SDS011;1985;48.592;8.850;2022-10-17T01:14:31;10.75;;;2.30;;
3941;SDS011;1985;48.592;8.850;2022-10-17T01:17:24;10.43;;;2.40;;
3941;SDS011;1985;48.592;8.850;2022-10-17T01:20:16;9.70;;;2.00;;
3941;SDS011;1985;48.592;8.850;2022-10-17T01:31:44;9.20;;;2.20;;
3941;SDS011;1985;48.592;8.850;2022-10-17T01:34:21;10.50;;;2.50;;
3941;SDS011;1985;48.592;8.850;2022-10-17T01:37:30;9.55;;;2.47;;
3941;SDS011;1985;48.592;8.850;2022-10-17T01:40:06;9.27;;;2.30;;
3941;SDS011;1985;48.592;8.850;2022-10-17T01:45:37;13.30;;;2.10;;
3941;SDS011;1985;48.592;8.850;2022-10-17T01:48:13;11.07;;;2.50;;
3941;SDS011;1985;48.592;8.850;2022-10-17T01:50:45;10.07;;;2.00;;
3941;SDS011;1985;48.592;8.850;2022-10-17T01:53:26;11.80;;;1.90;;
3941;SDS011;1985;48.592;8.850;2022-10-17T01:55:59;12.77;;;2.47;;
3941;SDS011;1985;48.592;8.850;2022-10-17T01:58:28;16.45;;;2.45;;
3941;SDS011;1985;48.592;8.850;2022-10-17T02:01:03;13.13;;;2.10;;
3941;SDS011;1985;48.592;8.850;2022-10-17T02:03:31;10.20;;;2.00;;
3941;SDS011;1985;48.592;8.850;2022-10-17T02:05:59;8.80;;;2.00;;
3941;SDS011;1985;48.592;8.850;2022-10-17T02:08:26;12.15;;;1.90;;
3941;SDS011;1985;48.592;8.850;2022-10-17T02:10:58;8.93;;;1.90;;
3941;SDS011;1985;48.592;8.850;2022-10-17T02:21:44;11.52;;;2.20;;
3941;SDS011;1985;48.592;8.850;2022-10-17T02:24:29;9.10;;;2.10;;
3941;SDS011;1985;48.592;8.850;2022-10-17T02:30:32;9.40;;;2.10;;
3941;SDS011;1985;48.592;8.850;2022-10-17T02:33:01;9.00;;;1.70;;
3941;SDS011;1985;48.592;8.850;2022-10-17T02:35:39;9.52;;;2.40;;
3941;SDS011;1985;48.592;8.850;2022-10-17T02:38:10;10.93;;;1.80;;
3941;SDS011;1985;48.592;8.850;2022-10-17T02:40:37;10.25;;;1.88;;
3941;SDS011;1985;48.592;8.850;2022-10-17T02:43:04;11.63;;;2.60;;
3941;SDS011;1985;48.592;8.850;2022-10-17T02:45:30;11.48;;;2.25;;
3941;SDS011;1985;48.592;8.850;2022-10-17T02:48:18;8.80;;;1.90;;
3941;SDS011;1985;48.592;8.850;2022-10-17T02:51:15;9.67;;;2.40;;
3941;SDS011;1985;48.592;8.850;2022-10-17T02:54:04;9.48;;;2.10;;
3941;SDS011;1985;48.592;8.850;2022-10-17T02:56:32;9.70;;;2.30;;
3941;SDS011;1985;48.592;8.850;2022-10-17T02:59:03;11.63;;;2.50;;
3941;SDS011;1985;48.592;8.850;2022-10-17T03:01:31;8.95;;;2.00;;
3941;SDS011;1985;48.592;8.850;2022-10-17T03:04:04;9.20;;;1.80;;
3941;SDS011;1985;48.592;8.850;2022-10-17T03:06:34;9.77;;;1.98;;
3941;SDS011;1985;48.592;8.850;2022-10-17T03:09:00;9.50;;;2.20;;
3941;SDS011;1985;48.592;8.850;2022-10-17T03:11:26;8.90;;;2.00;;
3941;SDS011;1985;48.592;8.850;2022-10-17T03:13:51;11.30;;;2.20;;
3941;SDS011;1985;48.592;8.850;2022-10-17T03:16:17;9.30;;;2.00;;
3941;SDS011;1985;48.592;8.850;2022-10-17T03:18:42;9.80;;;2.33;;
3941;SDS011;1985;48.592;8.850;2022-10-17T03:21:08;10.70;;;2.10;;
3941;SDS011;1985;48.592;8.850;2022-10-17T03:23:33;10.40;;;2.30;;
3941;SDS011;1985;48.592;8.850;2022-10-17T03:26:02;9.30;;;2.10;;
3941;SDS011;1985;48.592;8.850;2022-10-17T03:28:31;10.83;;;1.90;;
3941;SDS011;1985;48.592;8.850;2022-10-17T03:30:57;10.32;;;2.30;;
3941;SDS011;1985;48.592;8.850;2022-10-17T03:33:22;9.10;;;2.20;;
3941;SDS011;1985;48.592;8.850;2022-10-17T03:35:48;9.60;;;2.13;;
3941;SDS011;1985;48.592;8.850;2022-10-17T03:38:14;9.55;;;2.03;;
3941;SDS011;1985;48.592;8.850;2022-10-17T03:40:39;9.00;;;2.23;;
3941;SDS011;1985;48.592;8.850;2022-10-17T03:43:05;10.38;;;2.60;;
3941;SDS011;1985;48.592;8.850;2022-10-17T03:45:30;10.50;;;2.17;;
3941;SDS011;1985;48.592;8.850;2022-10-17T03:47:59;9.70;;;2.40;;
3941;SDS011;1985;48.592;8.850;2022-10-17T03:50:25;9.98;;;2.20;;
3941;SDS011;1985;48.592;8.850;2022-10-17T03:52:50;9.50;;;2.30;;
3941;SDS011;1985;48.592;8.850;2022-10-17T03:55:16;9.30;;;2.07;;
3941;SDS011;1985;48.592;8.850;2022-10-17T03:57:42;13.38;;;2.55;;
3941;SDS011;1985;48.592;8.850;2022-10-17T04:00:08;8.60;;;1.60;;
3941;SDS011;1985;48.592;8.850;2022-10-17T04:02:34;10.30;;;2.40;;
3941;SDS011;1985;48.592;8.850;2022-10-17T04:05:00;9.37;;;2.10;;
3941;SDS011;1985;48.592;8.850;2022-10-17T04:07:26;9.13;;;2.00;;
3941;SDS011;1985;48.592;8.850;2022-10-17T04:09:52;9.70;;;2.50;;
3941;SDS011;1985;48.592;8.850;2022-10-17T04:12:17;11.20;;;2.20;;
3941;SDS011;1985;48.592;8.850;2022-10-17T04:14:43;9.30;;;2.10;;
3941;SDS011;1985;48.592;8.850;2022-10-17T04:17:09;9.57;;;2.30;;
3941;SDS011;1985;48.592;8.850;2022-10-17T04:19:34;10.43;;;2.40;;
3941;SDS011;1985;48.592;8.850;2022-10-17T04:22:00;12.93;;;2.30;;
3941;SDS011;1985;48.592;8.850;2022-10-17T04:24:27;10.10;;;2.90;;
3941;SDS011;1985;48.592;8.850;2022-10-17T04:26:52;9.93;;;2.28;;
3941;SDS011;1985;48.592;8.850;2022-10-17T04:29:19;9.60;;;2.20;;
3941;SDS011;1985;48.592;8.850;2022-10-17T04:31:45;9.80;;;2.35;;
3941;SDS011;1985;48.592;8.850;2022-10-17T04:34:11;9.40;;;1.93;;
3941;SDS011;1985;48.592;8.850;2022-10-17T04:36:38;10.52;;;2.30;;
3941;SDS011;1985;48.592;8.850;2022-10-17T04:39:04;9.38;;;2.00;;
3941;SDS011;1985;48.592;8.850;2022-10-17T04:41:30;10.93;;;2.87;;
3941;SDS011;1985;48.592;8.850;2022-10-17T04:43:55;11.20;;;3.00;;
3941;SDS011;1985;48.592;8.850;2022-10-17T04:46:21;11.30;;;2.40;;
3941;SDS011;1985;48.592;8.850;2022-10-17T04:48:47;10.48;;;2.40;;
3941;SDS011;1985;48.592;8.850;2022-10-17T04:51:14;8.83;;;1.90;;
3941;SDS011;1985;48.592;8.850;2022-10-17T04:53:41;9.80;;;2.33;;
3941;SDS011;1985;48.592;8.850;2022-10-17T04:56:09;10.90;;;2.60;;
3941;SDS011;1985;48.592;8.850;2022-10-17T04:58:37;9.13;;;2.20;;
3941;SDS011;1985;48.592;8.850;2022-10-17T05:01:03;10.30;;;2.28;;
3941;SDS011;1985;48.592;8.850;2022-10-17T05:03:30;9.18;;;2.15;;
3941;SDS011;1985;48.592;8.850;2022-10-17T05:05:55;12.02;;;2.22;;
3941;SDS011;1985;48.592;8.850;2022-10-17T05:08:21;9.83;;;2.13;;
3941;SDS011;1985;48.592;8.850;2022-10-17T05:10:47;9.40;;;2.30;;
3941;SDS011;1985;48.592;8.850;2022-10-17T05:13:12;10.07;;;2.70;;
3941;SDS011;1985;48.592;8.850;2022-10-17T05:15:38;10.13;;;2.50;;
3941;SDS011;1985;48.592;8.850;2022-10-17T05:18:04;9.90;;;2.55;;
3941;SDS011;1985;48.592;8.850;2022-10-17T05:20:31;13.20;;;2.50;;
3941;SDS011;1985;48.592;8.850;2022-10-17T05:22:57;11.93;;;2.30;;
3941;SDS011;1985;48.592;8.850;2022-10-17T05:25:23;10.05;;;2.30;;
3941;SDS011;1985;48.592;8.850;2022-10-17T05:27:49;15.80;;;2.40;;
3941;SDS011;1985;48.592;8.850;2022-10-17T05:30:15;13.45;;;2.58;;
3941;SDS011;1985;48.592;8.850;2022-10-17T05:32:41;10.67;;;2.60;;
3941;SDS011;1985;48.592;8.850;2022-10-17T05:35:06;12.00;;;2.80;;
3941;SDS011;1985;48.592;8.850;2022-10-17T05:37:32;10.65;;;2.58;;
3941;SDS011;1985;48.592;8.850;2022-10-17T05:39:57;15.00;;;2.40;;
3941;SDS011;1985;48.592;8.850;2022-10-17T05:42:23;9.80;;;2.10;;
3941;SDS011;1985;48.592;8.850;2022-10-17T05:44:48;10.87;;;2.30;;
3941;SDS011;1985;48.592;8.850;2022-10-17T05:47:14;10.03;;;2.20;;
3941;SDS011;1985;48.592;8.850;2022-10-17T05:49:40;10.68;;;2.55;;
3941;SDS011;1985;48.592;8.850;2022-10-17T05:52:05;9.00;;;2.20;;
3941;SDS011;1985;48.592;8.850;2022-10-17T05:54:31;9.43;;;2.10;;
3941;SDS011;1985;48.592;8.850;2022-10-17T05:56:57;10.77;;;2.30;;
3941;SDS011;1985;48.592;8.850;2022-10-17T05:59:25;9.50;;;2.20;;
3941;SDS011;1985;48.592;8.850;2022-10-17T06:01:52;11.80;;;2.80;;
3941;SDS011;1985;48.592;8.850;2022-10-17T06:04:18;11.33;;;3.00;;
3941;SDS011;1985;48.592;8.850;2022-10-17T06:06:44;9.93;;;2.13;;
3941;SDS011;1985;48.592;8.850;2022-10-17T06:09:09;9.40;;;2.00;;
3941;SDS011;1985;48.592;8.850;2022-10-17T06:11:35;9.48;;;2.10;;
3941;SDS011;1985;48.592;8.850;2022-10-17T06:14:01;12.90;;;2.40;;
3941;SDS011;1985;48.592;8.850;2022-10-17T06:16:27;9.35;;;2.28;;
3941;SDS011;1985;48.592;8.850;2022-10-17T06:18:52;11.67;;;2.90;;
3941;SDS011;1985;48.592;8.850;2022-10-17T06:21:19;10.40;;;2.50;;
3941;SDS011;1985;48.592;8.850;2022-10-17T06:23:48;9.38;;;1.90;;
3941;SDS011;1985;48.592;8.850;2022-10-17T06:26:14;9.80;;;1.90;;
3941;SDS011;1985;48.592;8.850;2022-10-17T06:28:40;10.87;;;2.50;;
3941;SDS011;1985;48.592;8.850;2022-10-17T06:31:06;9.03;;;1.93;;
3941;SDS011;1985;48.592;8.850;2022-10-17T06:33:34;15.50;;;2.45;;
3941;SDS011;1985;48.592;8.850;2022-10-17T06:36:00;9.75;;;2.80;;
3941;SDS011;1985;48.592;8.850;2022-10-17T06:38:26;9.60;;;2.38;;
3941;SDS011;1985;48.592;8.850;2022-10-17T06:40:52;12.70;;;2.40;;
3941;SDS011;1985;48.592;8.850;2022-10-17T06:43:21;9.57;;;2.22;;
3941;SDS011;1985;48.592;8.850;2022-10-17T06:45:47;10.07;;;2.10;;
3941;SDS011;1985;48.592;8.850;2022-10-17T06:48:13;9.57;;;2.30;;
3941;SDS011;1985;48.592;8.850;2022-10-17T06:50:39;10.95;;;2.80;;
3941;SDS011;1985;48.592;8.850;2022-10-17T06:53:04;14.20;;;2.77;;
3941;SDS011;1985;48.592;8.850;2022-10-17T06:55:30;9.33;;;2.17;;
3941;SDS011;1985;48.592;8.850;2022-10-17T06:57:56;10.00;;;2.60;;
3941;SDS011;1985;48.592;8.850;2022-10-17T07:00:22;12.75;;;2.30;;
3941;SDS011;1985;48.592;8.850;2022-10-17T07:02:50;12.43;;;3.20;;
3941;SDS011;1985;48.592;8.850;2022-10-17T07:05:16;11.20;;;2.33;;
3941;SDS011;1985;48.592;8.850;2022-10-17T07:07:43;10.40;;;2.65;;
3941;SDS011;1985;48.592;8.850;2022-10-17T07:10:09;12.32;;;2.70;;
3941;SDS011;1985;48.592;8.850;2022-10-17T07:12:34;11.77;;;2.53;;
3941;SDS011;1985;48.592;8.850;2022-10-17T07:15:00;9.77;;;2.60;;
3941;SDS011;1985;48.592;8.850;2022-10-17T07:17:28;12.15;;;2.85;;
3941;SDS011;1985;48.592;8.850;2022-10-17T07:19:54;10.50;;;2.60;;
3941;SDS011;1985;48.592;8.850;2022-10-17T07:22:20;10.50;;;2.63;;
3941;SDS011;1985;48.592;8.850;2022-10-17T07:24:46;11.38;;;2.90;;
3941;SDS011;1985;48.592;8.850;2022-10-17T07:27:12;14.33;;;2.50;;
3941;SDS011;1985;48.592;8.850;2022-10-17T07:29:38;10.60;;;3.00;;
3941;SDS011;1985;48.592;8.850;2022-10-17T07:32:04;9.97;;;2.37;;
3941;SDS011;1985;48.592;8.850;2022-10-17T07:34:33;11.00;;;2.90;;
3941;SDS011;1985;48.592;8.850;2022-10-17T07:36:59;11.30;;;2.97;;
3941;SDS011;1985;48.592;8.850;2022-10-17T07:39:24;10.20;;;2.70;;
3941;SDS011;1985;48.592;8.850;2022-10-17T07:41:50;11.13;;;2.87;;
3941;SDS011;1985;48.592;8.850;2022-10-17T07:44:16;11.75;;;3.08;;
3941;SDS011;1985;48.592;8.850;2022-10-17T07:46:41;11.80;;;2.60;;
3941;SDS011;1985;48.592;8.850;2022-10-17T07:49:07;10.00;;;2.10;;
3941;SDS011;1985;48.592;8.850;2022-10-17T07:51:33;12.40;;;2.50;;
3941;SDS011;1985;48.592;8.850;2022-10-17T07:53:58;9.90;;;2.40;;
3941;SDS011;1985;48.592;8.850;2022-10-17T07:56:24;10.70;;;2.50;;
3941;SDS011;1985;48.592;8.850;2022-10-17T07:58:50;12.17;;;2.60;;
3941;SDS011;1985;48.592;8.850;2022-10-17T08:01:16;12.30;;;2.70;;
3941;SDS011;1985;48.592;8.850;2022-10-17T08:03:43;9.77;;;2.10;;
3941;SDS011;1985;48.592;8.850;2022-10-17T08:06:09;11.80;;;2.30;;
3941;SDS011;1985;48.592;8.850;2022-10-17T08:08:34;9.53;;;2.40;;
3941;SDS011;1985;48.592;8.850;2022-10-17T08:11:01;15.90;;;2.60;;
3941;SDS011;1985;48.592;8.850;2022-10-17T08:13:31;10.77;;;3.28;;
3941;SDS011;1985;48.592;8.850;2022-10-17T08:15:58;10.43;;;2.33;;
3941;SDS011;1985;48.592;8.850;2022-10-17T08:18:25;10.98;;;2.90;;
3941;SDS011;1985;48.592;8.850;2022-10-17T08:20:51;15.00;;;2.60;;
3941;SDS011;1985;48.592;8.850;2022-10-17T08:23:16;9.47;;;2.43;;
3941;SDS011;1985;48.592;8.850;2022-10-17T08:25:42;10.00;;;2.60;;
3941;SDS011;1985;48.592;8.850;2022-10-17T08:28:07;10.75;;;2.60;;
3941;SDS011;1985;48.592;8.850;2022-10-17T08:30:33;11.40;;;2.60;;
3941;SDS011;1985;48.592;8.850;2022-10-17T08:32:59;11.43;;;2.97;;
3941;SDS011;1985;48.592;8.850;2022-10-17T08:35:24;12.70;;;3.20;;
3941;SDS011;1985;48.592;8.850;2022-10-17T08:37:50;9.80;;;2.40;;
3941;SDS011;1985;48.592;8.850;2022-10-17T08:40:18;16.83;;;2.72;;
3941;SDS011;1985;48.592;8.850;2022-10-17T08:45:31;11.20;;;2.70;;
3941;SDS011;1985;48.592;8.850;2022-10-17T08:47:58;9.43;;;2.30;;
3941;SDS011;1985;48.592;8.850;2022-10-17T08:55:46;10.65;;;2.67;;
3941;SDS011;1985;48.592;8.850;2022-10-17T08:58:20;9.90;;;2.40;;
3941;SDS011;1985;48.592;8.850;2022-10-17T09:00:50;9.05;;;2.47;;
3941;SDS011;1985;48.592;8.850;2022-10-17T09:03:32;9.70;;;2.50;;
3941;SDS011;1985;48.592;8.850;2022-10-17T09:09:03;10.77;;;2.20;;
3941;SDS011;1985;48.592;8.850;2022-10-17T09:22:24;12.20;;;2.10;;
3941;SDS011;1985;48.592;8.850;2022-10-17T09:24:56;11.25;;;2.45;;
3941;SDS011;1985;48.592;8.850;2022-10-17T09:27:34;9.00;;;2.10;;
3941;SDS011;1985;48.592;8.850;2022-10-17T09:30:16;9.77;;;2.45;;
3941;SDS011;1985;48.592;8.850;2022-10-17T09:32:49;9.33;;;2.20;;
3941;SDS011;1985;48.592;8.850;2022-10-17T09:35:15;9.95;;;2.42;;
3941;SDS011;1985;48.592;8.850;2022-10-17T09:37:42;11.25;;;2.40;;
3941;SDS011;1985;48.592;8.850;2022-10-17T09:40:15;9.13;;;1.90;;
3941;SDS011;1985;48.592;8.850;2022-10-17T09:42:48;11.23;;;2.10;;
3941;SDS011;1985;48.592;8.850;2022-10-17T09:50:23;16.50;;;2.58;;
3941;SDS011;1985;48.592;8.850;2022-10-17T09:52:51;8.90;;;1.80;;
3941;SDS011;1985;48.592;8.850;2022-10-17T10:00:21;10.60;;;2.10;;
3941;SDS011;1985;48.592;8.850;2022-10-17T10:03:07;11.90;;;2.50;;
3941;SDS011;1985;48.592;8.850;2022-10-17T10:05:34;17.30;;;2.30;;
3941;SDS011;1985;48.592;8.850;2022-10-17T10:08:04;9.70;;;2.15;;
3941;SDS011;1985;48.592;8.850;2022-10-17T10:10:36;10.85;;;2.25;;
3941;SDS011;1985;48.592;8.850;2022-10-17T10:15:43;9.10;;;2.03;;
3941;SDS011;1985;48.592;8.850;2022-10-17T10:18:29;9.60;;;2.00;;
3941;SDS011;1985;48.592;8.850;2022-10-17T10:23:32;9.43;;;1.90;;
3941;SDS011;1985;48.592;8.850;2022-10-17T10:26:04;11.10;;;2.20;;
3941;SDS011;1985;48.592;8.850;2022-10-17T10:29:05;9.13;;;1.70;;
3941;SDS011;1985;48.592;8.850;2022-10-17T10:31:53;8.52;;;1.80;;
3941;SDS011;1985;48.592;8.850;2022-10-17T10:34:21;8.80;;;1.87;;
3941;SDS011;1985;48.592;8.850;2022-10-17T10:39:27;9.48;;;2.08;;
3941;SDS011;1985;48.592;8.850;2022-10-17T10:42:05;10.70;;;1.80;;
3941;SDS011;1985;48.592;8.850;2022-10-17T10:44:40;9.30;;;1.90;;
3941;SDS011;1985;48.592;8.850;2022-10-17T10:49:33;8.40;;;1.52;;
3941;SDS011;1985;48.592;8.850;2022-10-17T10:51:59;9.32;;;1.90;;
3941;SDS011;1985;48.592;8.850;2022-10-17T10:54:29;10.35;;;1.88;;
3941;SDS011;1985;48.592;8.850;2022-10-17T10:57:01;8.93;;;1.90;;
3941;SDS011;1985;48.592;8.850;2022-10-17T11:07:01;9.10;;;2.10;;
3941;SDS011;1985;48.592;8.850;2022-10-17T11:12:19;8.60;;;1.70;;
3941;SDS011;1985;48.592;8.850;2022-10-17T11:22:51;8.80;;;1.90;;
3941;SDS011;1985;48.592;8.850;2022-10-17T11:28:02;9.00;;;2.05;;
3941;SDS011;1985;48.592;8.850;2022-10-17T11:30:43;9.77;;;1.58;;
3941;SDS011;1985;48.592;8.850;2022-10-17T11:33:29;12.90;;;2.00;;
3941;SDS011;1985;48.592;8.850;2022-10-17T11:36:19;8.10;;;1.40;;
3941;SDS011;1985;48.592;8.850;2022-10-17T11:38:58;11.02;;;1.90;;
3941;SDS011;1985;48.592;8.850;2022-10-17T11:47:05;8.95;;;1.70;;
3941;SDS011;1985;48.592;8.850;2022-10-17T11:49:45;9.52;;;1.40;;
3941;SDS011;1985;48.592;8.850;2022-10-17T11:55:01;8.30;;;1.30;;
3941;SDS011;1985;48.592;8.850;2022-10-17T12:00:33;7.72;;;1.30;;
3941;SDS011;1985;48.592;8.850;2022-10-17T12:08:48;7.90;;;1.17;;
3941;SDS011;1985;48.592;8.850;2022-10-17T12:11:41;10.00;;;1.40;;
3941;SDS011;1985;48.592;8.850;2022-10-17T12:19:52;10.80;;;1.60;;
3941;SDS011;1985;48.592;8.850;2022-10-17T12:22:19;8.00;;;1.40;;
3941;SDS011;1985;48.592;8.850;2022-10-17T12:24:59;7.60;;;1.30;;
3941;SDS011;1985;48.592;8.850;2022-10-17T12:27:45;9.50;;;1.40;;
3941;SDS011;1985;48.592;8.850;2022-10-17T12:32:52;7.45;;;1.20;;
3941;SDS011;1985;48.592;8.850;2022-10-17T12:35:20;7.40;;;1.00;;
3941;SDS011;1985;48.592;8.850;2022-10-17T12:43:00;8.10;;;1.40;;
3941;SDS011;1985;48.592;8.850;2022-10-17T12:53:27;8.63;;;1.60;;
3941;SDS011;1985;48.592;8.850;2022-10-17T12:56:14;9.63;;;1.50;;
3941;SDS011;1985;48.592;8.850;2022-10-17T12:58:43;9.20;;;1.50;;
3941;SDS011;1985;48.592;8.850;2022-10-17T13:01:25;8.15;;;1.27;;
3941;SDS011;1985;48.592;8.850;2022-10-17T13:03:53;7.90;;;1.50;;
3941;SDS011;1985;48.592;8.850;2022-10-17T13:06:24;10.82;;;1.52;;
3941;SDS011;1985;48.592;8.850;2022-10-17T13:08:55;9.60;;;1.80;;
3941;SDS011;1985;48.592;8.850;2022-10-17T13:11:41;9.00;;;1.40;;
3941;SDS011;1985;48.592;8.850;2022-10-17T13:14:11;7.70;;;1.23;;
3941;SDS011;1985;48.592;8.850;2022-10-17T13:16:40;10.77;;;2.00;;
3941;SDS011;1985;48.592;8.850;2022-10-17T13:19:23;8.10;;;1.50;;
3941;SDS011;1985;48.592;8.850;2022-10-17T13:26:51;7.60;;;1.20;;
3941;SDS011;1985;48.592;8.850;2022-10-17T13:29:17;8.23;;;1.40;;
3941;SDS011;1985;48.592;8.850;2022-10-17T13:31:49;10.30;;;1.27;;
3941;SDS011;1985;48.592;8.850;2022-10-17T13:34:19;7.93;;;1.43;;
3941;SDS011;1985;48.592;8.850;2022-10-17T13:36:48;14.50;;;1.90;;
3941;SDS011;1985;48.592;8.850;2022-10-17T13:39:18;10.50;;;1.60;;
3941;SDS011;1985;48.592;8.850;2022-10-17T13:41:48;12.40;;;1.55;;
3941;SDS011;1985;48.592;8.850;2022-10-17T13:44:20;7.90;;;1.40;;
3941;SDS011;1985;48.592;8.850;2022-10-17T13:46:51;11.18;;;1.40;;
3941;SDS011;1985;48.592;8.850;2022-10-17T13:49:21;8.00;;;1.38;;
3941;SDS011;1985;48.592;8.850;2022-10-17T13:51:49;9.30;;;1.50;;
3941;SDS011;1985;48.592;8.850;2022-10-17T13:54:17;10.00;;;1.40;;
3941;SDS011;1985;48.592;8.850;2022-10-17T13:57:25;12.15;;;1.70;;
3941;SDS011;1985;48.592;8.850;2022-10-17T13:59:56;9.40;;;1.30;;
3941;SDS011;1985;48.592;8.850;2022-10-17T14:02:30;8.18;;;1.27;;
3941;SDS011;1985;48.592;8.850;2022-10-17T14:07:37;9.40;;;1.20;;
3941;SDS011;1985;48.592;8.850;2022-10-17T14:10:16;8.63;;;1.30;;
3941;SDS011;1985;48.592;8.850;2022-10-17T14:12:42;13.00;;;1.50;;
3941;SDS011;1985;48.592;8.850;2022-10-17T14:15:08;8.33;;;1.40;;
3941;SDS011;1985;48.592;8.850;2022-10-17T14:17:39;7.63;;;1.30;;
3941;SDS011;1985;48.592;8.850;2022-10-17T14:20:05;7.40;;;1.20;;
3941;SDS011;1985;48.592;8.850;2022-10-17T14:22:34;8.45;;;1.75;;
3941;SDS011;1985;48.592;8.850;2022-10-17T14:25:00;8.80;;;1.70;;
3941;SDS011;1985;48.592;8.850;2022-10-17T14:30:05;10.73;;;1.30;;
3941;SDS011;1985;48.592;8.850;2022-10-17T14:32:54;9.00;;;1.80;;
3941;SDS011;1985;48.592;8.850;2022-10-17T14:35:22;14.20;;;1.40;;
3941;SDS011;1985;48.592;8.850;2022-10-17T14:37:48;8.30;;;1.20;;
3941;SDS011;1985;48.592;8.850;2022-10-17T14:40:17;9.93;;;1.40;;
3941;SDS011;1985;48.592;8.850;2022-10-17T14:42:44;14.10;;;1.30;;
3941;SDS011;1985;48.592;8.850;2022-10-17T14:45:18;8.95;;;1.30;;
3941;SDS011;1985;48.592;8.850;2022-10-17T14:47:49;8.60;;;1.30;;
3941;SDS011;1985;48.592;8.850;2022-10-17T14:50:21;9.98;;;1.40;;
3941;SDS011;1985;48.592;8.850;2022-10-17T14:55:25;8.55;;;1.40;;
3941;SDS011;1985;48.592;8.850;2022-10-17T14:57:52;7.50;;;1.20;;
3941;SDS011;1985;48.592;8.850;2022-10-17T15:00:18;8.65;;;1.58;;
3941;SDS011;1985;48.592;8.850;2022-10-17T15:02:45;8.33;;;1.47;;
3941;SDS011;1985;48.592;8.850;2022-10-17T15:05:12;8.63;;;1.40;;
3941;SDS011;1985;48.592;8.850;2022-10-17T15:07:39;11.40;;;1.50;;
3941;SDS011;1985;48.592;8.850;2022-10-17T15:10:05;10.60;;;1.70;;
3941;SDS011;1985;48.592;8.850;2022-10-17T15:12:35;7.70;;;1.20;;
3941;SDS011;1985;48.592;8.850;2022-10-17T15:15:01;7.97;;;1.30;;
3941;SDS011;1985;48.592;8.850;2022-10-17T15:17:27;14.27;;;2.50;;
3941;SDS011;1985;48.592;8.850;2022-10-17T15:19:55;7.97;;;1.40;;
3941;SDS011;1985;48.592;8.850;2022-10-17T15:22:22;9.90;;;1.85;;
3941;SDS011;1985;48.592;8.850;2022-10-17T15:24:48;8.20;;;1.30;;
3941;SDS011;1985;48.592;8.850;2022-10-17T15:27:18;8.95;;;1.60;;
3941;SDS011;1985;48.592;8.850;2022-10-17T15:29:48;10.90;;;1.80;;
3941;SDS011;1985;48.592;8.850;2022-10-17T15:32:15;8.03;;;1.60;;
3941;SDS011;1985;48.592;8.850;2022-10-17T15:34:41;8.13;;;1.30;;
3941;SDS011;1985;48.592;8.850;2022-10-17T15:37:13;9.52;;;1.50;;
3941;SDS011;1985;48.592;8.850;2022-10-17T15:39:42;9.30;;;1.70;;
3941;SDS011;1985;48.592;8.850;2022-10-17T15:42:10;8.63;;;1.60;;
3941;SDS011;1985;48.592;8.850;2022-10-17T15:44:36;10.00;;;1.47;;
3941;SDS011;1985;48.592;8.850;2022-10-17T15:47:02;8.63;;;1.50;;
3941;SDS011;1985;48.592;8.850;2022-10-17T15:49:28;8.43;;;1.45;;
3941;SDS011;1985;48.592;8.850;2022-10-17T15:51:53;8.17;;;1.40;;
3941;SDS011;1985;48.592;8.850;2022-10-17T15:54:19;9.00;;;1.43;;
3941;SDS011;1985;48.592;8.850;2022-10-17T15:56:46;12.90;;;1.63;;
3941;SDS011;1985;48.592;8.850;2022-10-17T15:59:17;8.40;;;1.50;;
3941;SDS011;1985;48.592;8.850;2022-10-17T16:01:46;10.15;;;2.00;;
3941;SDS011;1985;48.592;8.850;2022-10-17T16:04:12;8.70;;;1.73;;
3941;SDS011;1985;48.592;8.850;2022-10-17T16:06:40;8.50;;;1.40;;
3941;SDS011;1985;48.592;8.850;2022-10-17T16:09:06;9.10;;;1.60;;
3941;SDS011;1985;48.592;8.850;2022-10-17T16:11:36;9.90;;;1.50;;
3941;SDS011;1985;48.592;8.850;2022-10-17T16:14:05;8.75;;;1.67;;
3941;SDS011;1985;48.592;8.850;2022-10-17T16:16:39;9.40;;;1.60;;
3941;SDS011;1985;48.592;8.850;2022-10-17T16:19:05;9.07;;;1.67;;
3941;SDS011;1985;48.592;8.850;2022-10-17T16:21:33;9.02;;;1.88;;
3941;SDS011;1985;48.592;8.850;2022-10-17T16:24:00;9.23;;;1.60;;
3941;SDS011;1985;48.592;8.850;2022-10-17T16:26:27;11.07;;;2.10;;
3941;SDS011;1985;48.592;8.850;2022-10-17T16:28:53;9.10;;;1.70;;
3941;SDS011;1985;48.592;8.850;2022-10-17T16:31:27;8.98;;;1.73;;
3941;SDS011;1985;48.592;8.850;2022-10-17T16:33:55;9.50;;;1.70;;
3941;SDS011;1985;48.592;8.850;2022-10-17T16:36:22;9.25;;;2.10;;
3941;SDS011;1985;48.592;8.850;2022-10-17T16:38:48;11.00;;;1.80;;
3941;SDS011;1985;48.592;8.850;2022-10-17T16:43:44;9.60;;;2.00;;
3941;SDS011;1985;48.592;8.850;2022-10-17T16:46:10;9.18;;;1.90;;
3941;SDS011;1985;48.592;8.850;2022-10-17T16:48:36;9.63;;;2.00;;
3941;SDS011;1985;48.592;8.850;2022-10-17T16:51:01;11.17;;;1.73;;
3941;SDS011;1985;48.592;8.850;2022-10-17T16:53:27;12.80;;;1.87;;
3941;SDS011;1985;48.592;8.850;2022-10-17T16:56:02;10.77;;;1.60;;
3941;SDS011;1985;48.592;8.850;2022-10-17T16:58:28;10.60;;;2.00;;
3941;SDS011;1985;48.592;8.850;2022-10-17T17:01:04;10.48;;;2.00;;
3941;SDS011;1985;48.592;8.850;2022-10-17T17:03:37;9.30;;;1.60;;
3941;SDS011;1985;48.592;8.850;2022-10-17T17:06:06;10.10;;;1.85;;
3941;SDS011;1985;48.592;8.850;2022-10-17T17:08:36;9.80;;;1.73;;
3941;SDS011;1985;48.592;8.850;2022-10-17T17:11:05;11.88;;;1.88;;
3941;SDS011;1985;48.592;8.850;2022-10-17T17:13:31;10.68;;;1.80;;
3941;SDS011;1985;48.592;8.850;2022-10-17T17:16:01;12.47;;;2.50;;
3941;SDS011;1985;48.592;8.850;2022-10-17T17:18:31;11.23;;;2.30;;
3941;SDS011;1985;48.592;8.850;2022-10-17T17:20:58;9.07;;;1.80;;
3941;SDS011;1985;48.592;8.850;2022-10-17T17:23:24;9.23;;;1.70;;
3941;SDS011;1985;48.592;8.850;2022-10-17T17:25:55;9.10;;;1.70;;
3941;SDS011;1985;48.592;8.850;2022-10-17T17:28:22;15.10;;;1.90;;
3941;SDS011;1985;48.592;8.850;2022-10-17T17:30:47;9.00;;;1.57;;
3941;SDS011;1985;48.592;8.850;2022-10-17T17:33:13;10.60;;;2.38;;
3941;SDS011;1985;48.592;8.850;2022-10-17T17:35:39;12.63;;;2.20;;
3941;SDS011;1985;48.592;8.850;2022-10-17T17:38:04;9.87;;;2.17;;
3941;SDS011;1985;48.592;8.850;2022-10-17T17:40:31;10.10;;;1.90;;
3941;SDS011;1985;48.592;8.850;2022-10-17T17:42:58;9.23;;;1.80;;
3941;SDS011;1985;48.592;8.850;2022-10-17T17:48:26;9.50;;;2.00;;